createdAt,value
2023-02-26T00:01:37.771Z,83.00
2023-02-26T00:04:07.773Z,83.00
2023-02-26T00:06:38.929Z,83.30
2023-02-26T00:09:06.524Z,82.90
2023-02-26T00:11:34.008Z,83.00
2023-02-26T00:14:01.168Z,82.80
2023-02-26T00:16:36.093Z,82.80
2023-02-26T00:19:07.520Z,82.20
2023-02-26T00:21:36.213Z,83.60
2023-02-26T00:24:03.458Z,82.70
2023-02-26T00:26:32.016Z,82.80
2023-02-26T00:28:59.628Z,83.00
2023-02-26T00:31:27.187Z,83.00
2023-02-26T00:33:56.943Z,83.00
2023-02-26T00:36:43.253Z,83.00
2023-02-26T00:39:46.449Z,83.00
2023-02-26T00:42:14.509Z,83.00
2023-02-26T00:44:41.908Z,82.80
2023-02-26T00:47:30.680Z,82.70
2023-02-26T00:50:19.459Z,82.60
2023-02-26T00:53:19.909Z,81.90
2023-02-26T00:55:46.642Z,82.30
2023-02-26T00:58:13.415Z,82.60
2023-02-26T01:00:40.179Z,82.20
2023-02-26T01:03:07.590Z,82.30
2023-02-26T01:05:34.885Z,81.60
2023-02-26T01:08:08.882Z,82.40
2023-02-26T01:10:35.968Z,82.20
2023-02-26T01:13:03.237Z,82.10
2023-02-26T01:15:30.785Z,82.00
2023-02-26T01:18:16.454Z,81.90
2023-02-26T01:21:03.939Z,81.90
2023-02-26T01:23:38.169Z,81.90
2023-02-26T01:26:18.122Z,81.80
2023-02-26T01:28:45.130Z,81.80
2023-02-26T01:31:33.076Z,81.80
2023-02-26T01:34:15.561Z,81.70
2023-02-26T01:37:26.736Z,81.40
2023-02-26T01:40:38.207Z,81.30
2023-02-26T01:43:20.583Z,81.30
2023-02-26T01:46:15.335Z,81.30
2023-02-26T01:48:56.664Z,81.30
2023-02-26T01:51:47.135Z,80.40
2023-02-26T01:54:19.150Z,81.00
2023-02-26T01:56:53.196Z,80.90
2023-02-26T01:59:24.799Z,80.20
2023-02-26T02:01:58.735Z,80.70
2023-02-26T02:04:26.855Z,80.10
2023-02-26T02:06:55.521Z,80.70
2023-02-26T02:09:23.072Z,80.60
2023-02-26T02:12:11.477Z,80.50
2023-02-26T02:15:13.458Z,80.50
2023-02-26T02:18:19.740Z,80.50
2023-02-26T02:21:27.876Z,79.80
2023-02-26T02:24:11.699Z,80.10
2023-02-26T02:27:08.515Z,79.80
2023-02-26T02:30:04.693Z,79.60
2023-02-26T02:32:50.706Z,78.80
2023-02-26T02:35:37.427Z,79.60
2023-02-26T02:38:26.240Z,79.30
2023-02-26T02:41:19.303Z,79.20
2023-02-26T02:43:49.141Z,79.30
2023-02-26T02:46:27.479Z,79.50
2023-02-26T02:49:03.142Z,79.50
2023-02-26T02:51:46.408Z,78.50
2023-02-26T02:54:27.994Z,79.30
2023-02-26T02:57:07.683Z,79.00
2023-02-26T02:59:47.321Z,78.90
2023-02-26T03:02:28.676Z,78.40
2023-02-26T03:04:55.442Z,78.60
2023-02-26T03:07:22.231Z,78.90
2023-02-26T03:09:49.694Z,78.80
2023-02-26T03:12:16.691Z,78.80
2023-02-26T03:14:43.662Z,78.80
2023-02-26T03:17:43.211Z,78.80
2023-02-26T03:20:26.629Z,79.00
2023-02-26T03:23:21.749Z,78.60
2023-02-26T03:26:10.574Z,78.30
2023-02-26T03:29:01.647Z,78.60
2023-02-26T03:31:57.363Z,78.30
2023-02-26T03:34:46.348Z,78.30
2023-02-26T03:37:26.235Z,78.30
2023-02-26T03:39:59.059Z,78.70
2023-02-26T03:42:36.276Z,78.60
2023-02-26T03:45:11.615Z,78.40
2023-02-26T03:47:42.958Z,78.40
2023-02-26T03:50:21.971Z,78.50
2023-02-26T03:52:52.032Z,77.70
2023-02-26T03:55:41.403Z,78.20
2023-02-26T03:58:08.127Z,78.30
2023-02-26T04:00:42.092Z,78.30
2023-02-26T04:03:35.090Z,77.50
2023-02-26T04:06:04.065Z,78.30
2023-02-26T04:08:31.066Z,78.40
2023-02-26T04:11:07.037Z,78.20
2023-02-26T04:13:33.815Z,78.30
2023-02-26T04:16:00.587Z,78.40
2023-02-26T04:18:27.708Z,78.10
2023-02-26T04:23:22.000Z,77.60
2023-02-26T04:25:48.746Z,78.20
2023-02-26T04:28:15.731Z,78.20
2023-02-26T04:30:42.434Z,77.40
2023-02-26T04:33:09.170Z,78.20
2023-02-26T04:35:36.169Z,78.10
2023-02-26T04:38:02.921Z,78.00
2023-02-26T04:40:29.855Z,78.00
2023-02-26T04:42:56.683Z,77.90
2023-02-26T04:45:23.561Z,78.20
2023-02-26T04:47:50.291Z,77.90
2023-02-26T04:50:17.321Z,78.00
2023-02-26T04:52:44.066Z,77.20
2023-02-26T04:55:10.888Z,78.10
2023-02-26T05:02:34.870Z,77.10
2023-02-26T05:05:01.933Z,77.60
2023-02-26T05:07:29.198Z,77.30
2023-02-26T05:09:55.940Z,77.30
2023-02-26T05:12:22.786Z,77.20
2023-02-26T05:14:49.508Z,77.40
2023-02-26T05:17:16.290Z,77.10
2023-02-26T05:19:43.087Z,76.90
2023-02-26T05:22:09.794Z,75.40
2023-02-26T05:24:36.609Z,76.90
2023-02-26T05:27:03.625Z,76.00
2023-02-26T05:29:30.727Z,76.90
2023-02-26T05:31:57.637Z,76.20
2023-02-26T05:34:24.573Z,76.50
2023-02-26T05:36:51.458Z,76.30
2023-02-26T05:39:18.183Z,76.60
2023-02-26T05:41:46.498Z,76.70
2023-02-26T05:44:13.751Z,76.50
2023-02-26T05:46:40.625Z,75.60
2023-02-26T05:49:07.404Z,76.50
2023-02-26T05:51:34.186Z,75.70
2023-02-26T05:54:00.943Z,77.00
2023-02-26T05:56:27.762Z,75.90
2023-02-26T05:58:55.410Z,75.90
2023-02-26T06:01:22.232Z,75.70
2023-02-26T06:03:48.945Z,75.70
2023-02-26T06:06:18.474Z,75.60
2023-02-26T06:08:45.962Z,75.60
2023-02-26T06:11:12.926Z,75.70
2023-02-26T06:13:40.115Z,75.40
2023-02-26T06:16:07.253Z,74.10
2023-02-26T06:18:34.052Z,75.10
2023-02-26T06:21:01.672Z,75.30
2023-02-26T06:25:55.753Z,74.20
2023-02-26T06:28:24.561Z,74.60
2023-02-26T06:30:54.929Z,74.70
2023-02-26T06:33:21.704Z,74.60
2023-02-26T06:35:48.814Z,73.90
2023-02-26T06:38:16.820Z,73.90
2023-02-26T06:40:44.087Z,74.10
2023-02-26T06:43:10.876Z,73.80
2023-02-26T06:45:37.906Z,73.90
2023-02-26T06:48:05.898Z,74.20
2023-02-26T06:50:32.700Z,74.50
2023-02-26T06:52:59.583Z,74.40
2023-02-26T06:55:28.967Z,73.40
2023-02-26T06:57:58.334Z,74.10
2023-02-26T07:00:26.369Z,72.70
2023-02-26T07:02:53.604Z,73.70
2023-02-26T07:05:20.377Z,73.30
2023-02-26T07:07:47.371Z,73.40
2023-02-26T07:10:14.194Z,73.50
2023-02-26T07:12:41.005Z,73.70
2023-02-26T07:15:08.689Z,73.30
2023-02-26T07:17:35.479Z,73.10
2023-02-26T07:20:06.526Z,73.30
2023-02-26T07:22:33.919Z,73.00
2023-02-26T07:25:00.681Z,72.80
2023-02-26T07:27:27.699Z,73.40
2023-02-26T07:29:54.438Z,72.50
2023-02-26T07:32:21.906Z,72.10
2023-02-26T07:34:48.792Z,72.70
2023-02-26T07:37:16.156Z,71.70
2023-02-26T07:39:42.941Z,72.50
2023-02-26T07:42:09.773Z,72.40
2023-02-26T07:44:36.748Z,72.60
2023-02-26T07:47:04.137Z,72.50
2023-02-26T07:49:32.521Z,72.60
2023-02-26T07:51:59.932Z,71.30
2023-02-26T07:54:26.913Z,72.50
2023-02-26T07:59:21.314Z,71.80
2023-02-26T08:01:48.147Z,72.60
2023-02-26T08:04:15.337Z,72.50
2023-02-26T08:09:09.577Z,71.50
2023-02-26T08:11:39.680Z,71.60
2023-02-26T08:14:07.587Z,71.90
2023-02-26T08:16:34.364Z,71.40
2023-02-26T08:19:01.134Z,71.20
2023-02-26T08:21:28.222Z,71.50
2023-02-26T08:23:54.994Z,71.30
2023-02-26T08:26:21.961Z,71.40
2023-02-26T08:28:49.227Z,71.50
2023-02-26T08:31:16.852Z,71.80
2023-02-26T08:33:44.524Z,70.80
2023-02-26T08:36:11.867Z,71.30
2023-02-26T08:38:39.523Z,71.00
2023-02-26T08:41:06.420Z,72.20
2023-02-26T08:43:33.324Z,70.90
2023-02-26T08:46:00.585Z,71.00
2023-02-26T08:48:27.447Z,71.10
2023-02-26T08:50:54.360Z,69.80
2023-02-26T08:53:21.143Z,70.90
2023-02-26T08:55:50.006Z,68.90
2023-02-26T08:58:17.563Z,70.40
2023-02-26T09:00:44.411Z,69.80
2023-02-26T09:03:11.715Z,70.80
2023-02-26T09:05:38.832Z,70.80
2023-02-26T09:08:05.725Z,70.70
2023-02-26T09:10:32.628Z,69.10
2023-02-26T09:12:59.484Z,70.40
2023-02-26T09:17:53.525Z,70.00
2023-02-26T09:20:20.466Z,69.40
2023-02-26T09:22:47.187Z,69.20
2023-02-26T09:25:15.738Z,69.60
2023-02-26T09:27:42.519Z,70.00
2023-02-26T09:30:10.388Z,69.90
2023-02-26T09:32:38.066Z,70.30
2023-02-26T09:35:05.609Z,69.60
2023-02-26T09:37:32.332Z,70.20
2023-02-26T09:39:59.110Z,69.10
2023-02-26T09:43:11.712Z,68.40
2023-02-26T09:45:44.485Z,67.40
2023-02-26T09:48:18.112Z,68.00
2023-02-26T09:50:50.739Z,66.20
2023-02-26T09:53:25.318Z,67.60
2023-02-26T09:56:00.797Z,67.00
2023-02-26T09:58:35.456Z,67.50
2023-02-26T10:01:26.434Z,67.10
2023-02-26T10:04:11.905Z,67.50
2023-02-26T10:07:10.325Z,66.70
2023-02-26T10:10:15.348Z,66.60
2023-02-26T10:12:44.974Z,66.30
2023-02-26T10:15:20.901Z,64.50
2023-02-26T10:18:11.863Z,66.30
2023-02-26T10:20:56.641Z,66.00
2023-02-26T10:23:44.924Z,65.40
2023-02-26T10:26:20.288Z,65.90
2023-02-26T10:29:23.224Z,64.20
2023-02-26T10:32:23.269Z,64.90
2023-02-26T10:35:02.873Z,64.70
2023-02-26T10:38:02.879Z,64.10
2023-02-26T10:40:50.431Z,63.90
2023-02-26T10:43:24.929Z,63.90
2023-02-26T10:46:33.898Z,65.80
2023-02-26T10:49:28.973Z,62.70
2023-02-26T10:52:04.429Z,63.20
2023-02-26T10:54:40.715Z,63.20
2023-02-26T10:57:23.049Z,64.40
2023-02-26T10:59:49.905Z,63.70
2023-02-26T11:02:40.115Z,63.60
2023-02-26T11:05:17.519Z,63.40
2023-02-26T11:07:56.033Z,62.20
2023-02-26T11:10:31.499Z,61.50
2023-02-26T11:12:59.077Z,61.70
2023-02-26T11:15:27.406Z,62.70
2023-02-26T11:18:00.007Z,62.00
2023-02-26T11:20:37.613Z,62.30
2023-02-26T11:23:12.741Z,59.90
2023-02-26T11:25:40.887Z,60.40
2023-02-26T11:28:20.910Z,61.00
2023-02-26T11:30:49.395Z,60.50
2023-02-26T11:33:37.524Z,60.70
2023-02-26T11:36:15.931Z,58.60
2023-02-26T11:38:47.482Z,58.50
2023-02-26T11:41:14.512Z,60.30
2023-02-26T11:43:46.508Z,59.10
2023-02-26T11:46:14.547Z,60.00
2023-02-26T11:48:49.549Z,60.00
2023-02-26T11:51:22.714Z,57.80
2023-02-26T11:54:01.443Z,59.00
2023-02-26T11:56:40.456Z,57.90
2023-02-26T11:59:20.113Z,58.30
2023-02-26T12:01:49.383Z,58.70
2023-02-26T12:04:27.481Z,59.00
2023-02-26T12:06:56.106Z,58.20
2023-02-26T12:09:26.033Z,59.20
2023-02-26T12:12:10.259Z,57.10
2023-02-26T12:14:57.684Z,57.10
2023-02-26T12:18:09.878Z,56.90
2023-02-26T12:20:57.046Z,57.70
2023-02-26T12:24:03.445Z,58.40
2023-02-26T12:26:48.233Z,58.60
2023-02-26T12:29:48.543Z,58.40
2023-02-26T12:32:57.739Z,58.30
2023-02-26T12:38:20.283Z,57.80
2023-02-26T12:41:47.280Z,58.20
2023-02-26T12:44:52.819Z,56.90
2023-02-26T12:47:56.235Z,57.00
2023-02-26T12:51:11.795Z,57.20
2023-02-26T12:54:22.616Z,57.30
2023-02-26T12:57:20.800Z,57.90
2023-02-26T13:00:15.216Z,57.50
2023-02-26T13:03:13.520Z,56.50
2023-02-26T13:06:27.759Z,57.10
2023-02-26T13:09:31.966Z,56.10
2023-02-26T13:12:24.383Z,56.10
2023-02-26T13:15:06.084Z,56.60
2023-02-26T13:18:06.906Z,56.90
2023-02-26T13:20:37.258Z,57.30
2023-02-26T13:23:15.951Z,56.00
2023-02-26T13:25:55.238Z,56.90
2023-02-26T13:29:29.309Z,56.90
2023-02-26T13:32:13.799Z,55.10
2023-02-26T13:35:01.620Z,56.80
2023-02-26T13:40:40.031Z,56.50
2023-02-26T13:43:24.989Z,55.10
2023-02-26T13:46:21.169Z,56.30
2023-02-26T13:49:12.302Z,55.80
2023-02-26T13:51:41.985Z,54.60
2023-02-26T13:54:45.544Z,55.90
2023-02-26T13:57:42.589Z,54.10
2023-02-26T14:00:33.009Z,55.80
2023-02-26T14:03:16.295Z,55.50
2023-02-26T14:05:46.368Z,55.30
2023-02-26T14:08:42.032Z,56.60
2023-02-26T14:11:17.682Z,56.50
2023-02-26T14:14:11.386Z,56.00
2023-02-26T14:16:44.440Z,54.90
2023-02-26T14:19:40.791Z,56.30
2023-02-26T14:22:36.040Z,55.70
2023-02-26T14:25:22.774Z,55.50
2023-02-26T14:27:50.046Z,56.10
2023-02-26T14:30:33.984Z,56.00
2023-02-26T14:33:01.143Z,55.80
2023-02-26T14:35:31.730Z,56.50
2023-02-26T14:38:05.157Z,56.10
2023-02-26T14:40:42.513Z,55.60
2023-02-26T14:43:37.175Z,55.30
2023-02-26T14:46:05.228Z,54.30
2023-02-26T14:48:34.116Z,54.20
2023-02-26T14:51:38.528Z,54.20
2023-02-26T14:54:43.338Z,54.80
2023-02-26T14:57:55.250Z,54.90
2023-02-26T15:00:49.574Z,53.80
2023-02-26T15:04:00.277Z,55.10
2023-02-26T15:07:02.248Z,53.80
2023-02-26T15:10:03.898Z,54.60
2023-02-26T15:13:09.492Z,53.70
2023-02-26T15:15:55.100Z,53.20
2023-02-26T15:18:46.513Z,54.40
2023-02-26T15:21:50.160Z,55.20
2023-02-26T15:24:17.060Z,54.40
2023-02-26T15:26:53.310Z,55.20
2023-02-26T15:29:28.784Z,54.50
2023-02-26T15:32:05.354Z,53.80
2023-02-26T15:34:33.933Z,55.20
2023-02-26T15:37:01.315Z,55.00
2023-02-26T15:39:28.050Z,54.60
2023-02-26T15:41:56.152Z,53.20
2023-02-26T15:44:30.694Z,54.00
2023-02-26T15:47:02.051Z,52.20
2023-02-26T15:49:43.553Z,54.20
2023-02-26T15:52:18.307Z,53.60
2023-02-26T15:55:00.021Z,54.00
2023-02-26T15:57:28.567Z,53.70
2023-02-26T16:00:17.108Z,54.20
2023-02-26T16:02:45.530Z,54.30
2023-02-26T16:05:16.514Z,54.00
2023-02-26T16:07:43.321Z,54.90
2023-02-26T16:10:34.685Z,54.60
2023-02-26T16:13:02.595Z,54.70
2023-02-26T16:15:36.768Z,54.90
2023-02-26T16:18:15.116Z,55.00
2023-02-26T16:20:49.979Z,55.00
2023-02-26T16:23:22.902Z,55.20
2023-02-26T16:26:02.864Z,55.80
2023-02-26T16:28:37.782Z,55.60
2023-02-26T16:31:07.097Z,54.70
2023-02-26T16:33:35.447Z,55.60
2023-02-26T16:36:17.652Z,55.80
2023-02-26T16:38:46.089Z,55.60
2023-02-26T16:41:14.497Z,54.90
2023-02-26T16:43:49.966Z,56.00
2023-02-26T16:46:42.462Z,55.80
2023-02-26T16:49:26.924Z,56.00
2023-02-26T16:51:56.589Z,56.00
2023-02-26T16:54:38.860Z,55.60
2023-02-26T16:57:20.406Z,56.10
2023-02-26T16:59:54.175Z,56.40
2023-02-26T17:02:29.343Z,56.60
2023-02-26T17:05:02.815Z,56.60
2023-02-26T17:07:36.887Z,56.60
2023-02-26T17:10:45.354Z,56.60
2023-02-26T17:13:19.084Z,56.10
2023-02-26T17:15:47.576Z,56.90
2023-02-26T17:18:14.728Z,56.20
2023-02-26T17:20:41.976Z,56.90
2023-02-26T17:23:11.992Z,56.70
2023-02-26T17:25:47.134Z,57.00
2023-02-26T17:28:22.565Z,57.10
2023-02-26T17:30:49.320Z,56.60
2023-02-26T17:33:16.191Z,56.90
2023-02-26T17:35:44.281Z,57.10
2023-02-26T17:38:13.271Z,57.40
2023-02-26T17:40:43.144Z,57.30
2023-02-26T17:43:10.134Z,57.50
2023-02-26T17:45:40.250Z,57.00
2023-02-26T17:50:56.821Z,56.50
2023-02-26T17:53:29.472Z,56.90
2023-02-26T17:58:30.426Z,56.80
2023-02-26T18:00:57.885Z,57.20
2023-02-26T18:03:24.707Z,57.40
2023-02-26T18:05:54.605Z,57.50
2023-02-26T18:08:25.424Z,56.90
2023-02-26T18:10:53.458Z,57.50
2023-02-26T18:13:21.534Z,57.50
2023-02-26T18:15:50.061Z,57.10
2023-02-26T18:18:18.277Z,57.60
2023-02-26T18:20:46.042Z,57.20
2023-02-26T18:23:13.856Z,57.90
2023-02-26T18:25:43.299Z,57.40
2023-02-26T18:28:28.148Z,57.40
2023-02-26T18:30:56.940Z,58.00
2023-02-26T18:33:25.293Z,58.10
2023-02-26T18:35:56.759Z,58.30
2023-02-26T18:38:28.192Z,58.20
2023-02-26T18:40:55.611Z,58.20
2023-02-26T18:43:22.701Z,58.30
2023-02-26T18:45:52.773Z,58.30
2023-02-26T18:48:21.097Z,57.90
2023-02-26T18:50:49.080Z,57.80
2023-02-26T18:53:17.562Z,58.40
2023-02-26T18:55:44.996Z,57.80
2023-02-26T18:58:13.149Z,58.60
2023-02-26T19:00:40.153Z,58.00
2023-02-26T19:03:08.781Z,58.70
2023-02-26T19:05:35.905Z,58.70
2023-02-26T19:08:02.635Z,58.90
2023-02-26T19:10:31.391Z,58.70
2023-02-26T19:12:58.567Z,58.30
2023-02-26T19:15:25.411Z,58.90
2023-02-26T19:17:52.203Z,58.30
2023-02-26T19:20:19.599Z,58.90
2023-02-26T19:22:47.074Z,58.30
2023-02-26T19:25:14.569Z,58.30
2023-02-26T19:27:44.201Z,59.00
2023-02-26T19:30:11.607Z,58.50
2023-02-26T19:32:38.462Z,58.40
2023-02-26T19:37:34.860Z,58.70
2023-02-26T19:40:01.616Z,58.70
2023-02-26T19:42:28.540Z,58.70
2023-02-26T19:44:55.263Z,59.30
2023-02-26T19:49:50.229Z,59.70
2023-02-26T19:52:20.048Z,58.80
2023-02-26T19:54:46.758Z,59.60
2023-02-26T19:57:13.560Z,58.80
2023-02-26T19:59:40.816Z,58.80
2023-02-26T20:02:09.965Z,59.00
2023-02-26T20:07:06.908Z,60.00
2023-02-26T20:09:34.619Z,59.10
2023-02-26T20:12:02.722Z,59.00
2023-02-26T20:14:29.445Z,59.00
2023-02-26T20:16:56.169Z,60.20
2023-02-26T20:19:22.977Z,59.60
2023-02-26T20:21:49.844Z,59.60
2023-02-26T20:24:18.430Z,59.70
2023-02-26T20:26:45.815Z,59.70
2023-02-26T20:29:15.035Z,59.00
2023-02-26T20:31:42.100Z,59.10
2023-02-26T20:34:09.284Z,59.80
2023-02-26T20:36:36.280Z,59.90
2023-02-26T20:39:03.111Z,59.80
2023-02-26T20:41:29.930Z,59.30
2023-02-26T20:43:58.612Z,59.90
2023-02-26T20:46:25.495Z,59.90
2023-02-26T20:51:19.534Z,59.40
2023-02-26T20:53:46.291Z,60.00
2023-02-26T20:56:13.040Z,59.30
2023-02-26T20:58:41.250Z,60.50
2023-02-26T21:01:08.065Z,59.40
2023-02-26T21:03:34.984Z,60.00
2023-02-26T21:06:01.740Z,60.00
2023-02-26T21:08:28.460Z,60.10
2023-02-26T21:10:55.231Z,60.10
2023-02-26T21:13:21.979Z,60.20
2023-02-26T21:15:51.828Z,60.20
2023-02-26T21:18:18.591Z,59.70
2023-02-26T21:20:45.326Z,60.80
2023-02-26T21:23:12.022Z,60.30
2023-02-26T21:25:40.623Z,60.30
2023-02-26T21:28:07.404Z,60.20
2023-02-26T21:30:35.635Z,60.20
2023-02-26T21:33:02.471Z,60.30
2023-02-26T21:35:29.301Z,61.10
2023-02-26T21:37:56.060Z,59.90
2023-02-26T21:40:22.927Z,59.90
2023-02-26T21:42:49.673Z,59.90
2023-02-26T21:45:16.454Z,60.60
2023-02-26T21:47:43.225Z,60.70
2023-02-26T21:50:10.901Z,60.00
2023-02-26T21:52:37.676Z,60.60
2023-02-26T21:55:04.909Z,60.70
2023-02-26T21:57:31.633Z,60.10
2023-02-26T21:59:58.360Z,60.80
2023-02-26T22:02:25.206Z,60.80
2023-02-26T22:04:51.950Z,60.90
2023-02-26T22:07:18.696Z,60.90
2023-02-26T22:09:47.338Z,61.00
2023-02-26T22:12:15.396Z,61.10
2023-02-26T22:17:09.736Z,60.70
2023-02-26T22:19:36.488Z,61.40
2023-02-26T22:22:03.932Z,60.80
2023-02-26T22:24:30.867Z,60.70
2023-02-26T22:26:57.736Z,60.80
2023-02-26T22:29:24.810Z,61.50
2023-02-26T22:31:51.931Z,61.60
2023-02-26T22:34:18.758Z,60.90
2023-02-26T22:36:46.079Z,61.60
2023-02-26T22:41:40.674Z,61.30
2023-02-26T22:44:07.419Z,62.00
2023-02-26T22:46:34.385Z,62.00
2023-02-26T22:49:01.344Z,61.30
2023-02-26T22:51:29.833Z,62.10
2023-02-26T22:54:00.535Z,62.10
2023-02-26T22:56:27.971Z,62.10
2023-02-26T22:58:55.322Z,62.30
2023-02-26T23:01:22.221Z,61.80
2023-02-26T23:03:49.078Z,62.40
2023-02-26T23:06:16.143Z,61.70
2023-02-26T23:08:42.986Z,62.40
2023-02-26T23:11:10.106Z,62.80
2023-02-26T23:13:37.995Z,62.70
2023-02-26T23:16:08.800Z,61.60
2023-02-26T23:18:37.153Z,61.60
2023-02-26T23:21:05.768Z,61.50
2023-02-26T23:23:32.909Z,62.30
2023-02-26T23:25:59.654Z,62.20
2023-02-26T23:28:26.997Z,61.40
2023-02-26T23:30:54.055Z,62.10
2023-02-26T23:33:20.960Z,61.50
2023-02-26T23:35:48.566Z,61.40
2023-02-26T23:38:15.412Z,62.00
2023-02-26T23:40:42.351Z,61.20
2023-02-26T23:43:09.173Z,62.00
2023-02-26T23:45:35.927Z,61.20
2023-02-26T23:48:02.651Z,61.90
2023-02-26T23:50:29.382Z,61.10
2023-02-26T23:52:56.142Z,61.80
2023-02-26T23:55:22.879Z,61.80
2023-02-26T23:57:49.664Z,61.80
